D/T METAR WX W/SPE G/SPE TEMP DEWP FEEL
31/01/23 12:50 EGXC 311250Z 29026G39KT 9999 FEW034 10/01 Q1019 NOSIG RMK BLU BLU 29.9mph 44.9mph 10°C 1°C 8.1°C
31/01/23 12:20 EGXC 311220Z 29024G34KT 9999 FEW034 10/02 Q1019 NOSIG RMK BLU BLU 27.6mph 39.1mph 10°C 2°C 8.4°C
31/01/23 05:50 EGXC 310550Z 25015KT 9999 FEW018 SCT060 BKN090 07/04 Q1019 RMK BLU 17.3mph 7°C 4°C 6.0°C
30/01/23 21:50 EGXC 302150Z 25009KT CAVOK 03/01 Q1024 RMK BLU 10.4mph 3°C 1°C 1.1°C
30/01/23 12:50 EGXC 301250Z 29014KT 9999 FEW032 10/02 Q1023 NOSIG RMK BLU BLU 16.1mph 10°C 2°C 8.4°C
30/01/23 11:50 EGXC 301150Z 30015KT 9999 FEW028 09/02 Q1023 NOSIG RMK BLU BLU 17.3mph 9°C 2°C 7.4°C
30/01/23 10:50 EGXC 301050Z 29016KT CAVOK 09/02 Q1022 NOSIG RMK BLU BLU 18.4mph 9°C 2°C 7.4°C
30/01/23 10:20 EGXC 301020Z 28012KT CAVOK 08/02 Q1022 NOSIG RMK BLU BLU 13.8mph 8°C 2°C 6.4°C
30/01/23 07:50 EGXC 300750Z 28016KT 9999 FEW035 06/01 Q1020 RMK BLU 18.4mph 6°C 1°C 4.1°C
30/01/23 06:50 EGXC 300650Z 28013KT 9999 FEW035 06/01 Q1019 RMK BLU 15.0mph 6°C 1°C 4.1°C
09/01/23 05:50 EGXC 090550Z 25005KT CAVOK 03/02 Q0991 RMK BLU 5.8mph 3°C 2°C 1.4°C
09/01/23 04:50 EGXC 090450Z 23007KT 9999 FEW045 02/02 Q0990 RMK BLU 8.1mph 2°C 2°C 0.4°C
09/01/23 03:50 EGXC 090350Z 21005KT 9999 BKN045 01/01 Q0990 RMK BLU 5.8mph 1°C 1°C -0.9°C
09/01/23 02:50 EGXC 090250Z AUTO 21005KT 9999 FEW048/// 01/00 Q0989 5.8mph 1°C 0°C -1.2°C
09/01/23 00:50 EGXC 090050Z 22005KT 9999 SCT035 02/01 Q0988 RMK BLU 5.8mph 2°C 1°C 0.1°C
08/01/23 23:50 EGXC 082350Z 20008KT CAVOK 03/02 Q0987 RMK BLU 9.2mph 3°C 2°C 1.4°C
08/01/23 22:50 EGXC 082250Z 21008KT CAVOK 03/02 Q0987 RMK BLU 9.2mph 3°C 2°C 1.4°C
08/01/23 21:50 EGXC 082150Z 19009KT CAVOK 04/03 Q0987 RMK BLU 10.4mph 4°C 3°C 2.7°C
08/01/23 18:50 EGXC 081850Z 21007KT CAVOK 06/04 Q0986 RMK BLU 8.1mph 6°C 4°C 5.0°C
08/01/23 17:50 EGXC 081750Z 21011KT 9999 FEW040 BKN120 06/05 Q0986 RMK BLU 12.7mph 6°C 5°C 5.3°C
08/01/23 16:50 EGXC 081650Z 19011KT 9999 BKN040 07/04 Q0986 RMK BLU 12.7mph 7°C 4°C 6.0°C
08/01/23 15:50 EGXC 081550Z 19011KT 9999 FEW029 SCT037 BKN250 08/05 Q0986 RMK BLU 12.7mph 8°C 5°C 7.3°C
08/01/23 13:50 EGXC 081350Z 19016KT 9999 FEW022 BKN030 09/05 Q0986 RMK BLU 18.4mph 9°C 5°C 8.3°C
08/01/23 12:50 EGXC 081250Z 18013KT 9999 SCT022 BKN099 09/06 Q0987 RMK WHT 15.0mph 9°C 6°C 8.6°C
08/01/23 11:50 EGXC 081150Z 18013KT 9999 FEW023 SCT130 BKN250 07/05 Q0989 RMK BLU 15.0mph 7°C 5°C 6.3°C
08/01/23 10:50 EGXC 081050Z 18012KT 9999 FEW020 BKN250 07/05 Q0990 RMK BLU 13.8mph 7°C 5°C 6.3°C
08/01/23 09:50 EGXC 080950Z 19012KT CAVOK 07/04 Q0991 RMK BLU 13.8mph 7°C 4°C 6.0°C
08/01/23 08:50 EGXC 080850Z 19014KT CAVOK 06/04 Q0991 RMK BLU 16.1mph 6°C 4°C 5.0°C
08/01/23 07:50 EGXC 080750Z 19012KT 9999 SCT045 06/04 Q0991 RMK BLU 13.8mph 6°C 4°C 5.0°C
08/01/23 06:50 EGXC 080650Z 19012KT 9999 FEW022 BKN050 BKN100 07/04 Q0991 RMK BLU 13.8mph 7°C 4°C 6.0°C
08/01/23 05:50 EGXC 080550Z 20011KT 9999 FEW022 BKN050 07/05 Q0992 RMK BLU 12.7mph 7°C 5°C 6.3°C
08/01/23 04:50 EGXC 080450Z 18011KT 9999 FEW035 SCT100 BKN250 07/05 Q0992 RMK BLU 12.7mph 7°C 5°C 6.3°C
08/01/23 03:50 EGXC 080350Z 19013KT 9999 FEW035 SCT160 BKN250 07/05 Q0992 RMK BLU 15.0mph 7°C 5°C 6.3°C
08/01/23 02:50 EGXC 080250Z 20014KT 9999 FEW035 BKN160 07/05 Q0992 RMK BLU 16.1mph 7°C 5°C 6.3°C
08/01/23 02:20 EGXC 080220Z AUTO 20015KT 9999 SCT180/// 07/05 Q0992 17.3mph 7°C 5°C 6.3°C
08/01/23 01:50 EGXC 080150Z 20013KT 9999 FEW035 SCT250 07/05 Q0992 RMK BLU 15.0mph 7°C 5°C 6.3°C
08/01/23 01:20 EGXC 080120Z AUTO 19014KT 9999 NCD 06/05 Q0992 16.1mph 6°C 5°C 5.3°C
07/01/23 23:50 EGXC 072350Z 19011KT 9999 FEW035 06/04 Q0993 RMK BLU 12.7mph 6°C 4°C 5.0°C
07/01/23 22:50 EGXC 072250Z 20015KT 9999 FEW035 06/04 Q0993 RMK BLU 17.3mph 6°C 4°C 5.0°C
07/01/23 21:50 EGXC 072150Z 20014KT 9999 FEW035 07/05 Q0993 RMK BLU 16.1mph 7°C 5°C 6.3°C
07/01/23 20:50 EGXC 072050Z 21014KT 9999 FEW022 07/04 Q0992 RMK BLU 16.1mph 7°C 4°C 6.0°C
07/01/23 19:50 EGXC 071950Z 22017KT 9999 FEW022 BKN038 08/05 Q0992 RMK BLU 19.6mph 8°C 5°C 7.3°C
07/01/23 18:50 EGXC 071850Z 21016KT 9999 FEW022 SCT045 BKN120 09/06 Q0991 RMK BLU 18.4mph 9°C 6°C 8.6°C
07/01/23 17:50 EGXC 071750Z 18012KT 9999 -RA BKN045 BKN120 10/08 Q0991 RMK BLU -RA 13.8mph 10°C 8°C 10.4°C
07/01/23 16:50 EGXC 071650Z 17008KT 9999 FEW018 BKN065 10/09 Q0992 RMK BLU 9.2mph 10°C 9°C 10.8°C
07/01/23 15:50 EGXC 071550Z 18010KT 9999 FEW018 10/09 Q0992 RMK BLU 11.5mph 10°C 9°C 10.8°C
07/01/23 14:50 EGXC 071450Z 19015KT 9999 -RA BKN018 BKN040 11/09 Q0992 RMK WHT -RA 17.3mph 11°C 9°C 11.8°C
07/01/23 13:50 EGXC 071350Z 18015KT 9999 -RA BKN007 BKN050 10/10 Q0993 RMK GRN -RA 17.3mph 10°C 10°C 11.3°C
07/01/23 12:50 EGXC 071250Z 18013KT 9999 -RA BKN007 OVC014 10/09 Q0994 RMK GRN -RA 15.0mph 10°C 9°C 10.8°C
07/01/23 10:50 EGXC 071050Z 17019KT 9999 -RA OVC010 10/08 Q0996 RMK GRN -RA 21.9mph 10°C 8°C 10.4°C
07/01/23 09:50 EGXC 070950Z 17021KT 9999 -RA OVC020 10/08 Q0996 RMK WHT -RA 24.2mph 10°C 8°C 10.4°C
07/01/23 08:50 EGXC 070850Z 18020KT 9999 -RA SCT018 OVC025 10/08 Q0997 RMK WHT -RA 23.0mph 10°C 8°C 10.4°C
07/01/23 07:50 EGXC 070750Z 18020KT 9999 -RA BKN022 11/08 Q0998 RMK WHT -RA 23.0mph 11°C 8°C 11.4°C
07/01/23 06:50 EGXC 070650Z 18020G30KT 9999 -RA BKN022 OVC030 12/09 Q0998 RMK WHT -RA 23.0mph 34.5mph 12°C 9°C 12.8°C
07/01/23 05:50 EGXC 070550Z 18017KT 9999 -RA FEW022 OVC028 12/09 Q0999 RMK BLU -RA 19.6mph 12°C 9°C 12.8°C
07/01/23 04:50 EGXC 070450Z 19020G30KT 9999 FEW022 BKN030 BKN120 12/09 Q1000 RMK BLU 23.0mph 34.5mph 12°C 9°C 12.8°C
07/01/23 03:50 EGXC 070350Z 20019G30KT 9999 SCT023 BKN032 BKN140 12/09 Q1001 RMK WHT 21.9mph 34.5mph 12°C 9°C 12.8°C
07/01/23 02:50 EGXC 070250Z 18013KT 9999 BKN023 BKN140 12/09 Q1002 RMK WHT 15.0mph 12°C 9°C 12.8°C
07/01/23 02:20 EGXC 070220Z AUTO 19013KT 9999 OVC021/// 12/09 Q1003 15.0mph 12°C 9°C 12.8°C
07/01/23 01:50 EGXC 070150Z 20016KT 9999 BKN022 BKN030 12/09 Q1003 RMK WHT 18.4mph 12°C 9°C 12.8°C
07/01/23 00:50 EGXC 070050Z 20016KT 9999 BKN018 BKN028 12/09 Q1004 RMK WHT 18.4mph 12°C 9°C 12.8°C
06/01/23 23:50 EGXC 062350Z 20015KT 9999 FEW015 BKN022 12/10 Q1005 RMK WHT 17.3mph 12°C 10°C 13.3°C
06/01/23 22:50 EGXC 062250Z 20017KT 9999 FEW012 BKN022 11/10 Q1006 RMK WHT 19.6mph 11°C 10°C 12.3°C
06/01/23 21:50 EGXC 062150Z 18012KT 9999 SCT010 BKN015 BKN150 10/09 Q1006 RMK GRN 13.8mph 10°C 9°C 10.8°C
06/01/23 20:50 EGXC 062050Z 16008KT 9999 -RA BKN010 OVC016 09/08 Q1007 RMK GRN -RA 9.2mph 9°C 8°C 9.4°C
06/01/23 19:50 EGXC 061950Z 16007KT 8000 -RA BKN012 OVC020 08/08 Q1008 RMK GRN -RA 8.1mph 8°C 8°C 8.4°C
06/01/23 16:50 EGXC 061650Z 19009KT 9999 FEW020 BKN040 BKN160 09/07 Q1010 RMK BLU 10.4mph 9°C 7°C 9.0°C
06/01/23 13:50 EGXC 061350Z 22016KT 9999 FEW020 BKN080 BKN200 10/07 Q1011 RMK BLU 18.4mph 10°C 7°C 10.0°C
06/01/23 13:20 EGXC 061320Z 22015KT 9999 FEW020 BKN080 BKN200 10/07 Q1011 TEMPO SCT020 RMK BLU TEMPO WHT 17.3mph 10°C 7°C 10.0°C
06/01/23 12:50 EGXC 061250Z 22013KT 9999 FEW010 SCT080 BKN200 09/07 Q1011 NOSIG RMK BLU BLU 15.0mph 9°C 7°C 9.0°C
06/01/23 12:20 EGXC 061220Z 22014KT 9999 FEW008 SCT080 BKN200 09/07 Q1011 NOSIG RMK BLU BLU 16.1mph 9°C 7°C 9.0°C
06/01/23 11:20 EGXC 061120Z 23014KT CAVOK 08/06 Q1011 NOSIG RMK BLU BLU 16.1mph 8°C 6°C 7.6°C
06/01/23 10:50 EGXC 061050Z 22011KT CAVOK 07/06 Q1012 NOSIG RMK BLU BLU 12.7mph 7°C 6°C 6.6°C
06/01/23 10:20 EGXC 061020Z 21011KT CAVOK 07/05 Q1012 NOSIG RMK BLU BLU 12.7mph 7°C 5°C 6.3°C
06/01/23 09:50 EGXC 060950Z 22011KT CAVOK 07/05 Q1012 NOSIG RMK BLU BLU 12.7mph 7°C 5°C 6.3°C
06/01/23 09:20 EGXC 060920Z 23012KT CAVOK 07/04 Q1011 NOSIG RMK BLU BLU 13.8mph 7°C 4°C 6.0°C
06/01/23 08:50 EGXC 060850Z 24015KT CAVOK 06/04 Q1011 NOSIG RMK BLU BLU 17.3mph 6°C 4°C 5.0°C
06/01/23 07:50 EGXC 060750Z 23015KT CAVOK 06/04 Q1011 RMK BLU 17.3mph 6°C 4°C 5.0°C
06/01/23 06:50 EGXC 060650Z 24014KT 9999 SKC 06/04 Q1011 RMK BLU 16.1mph 6°C 4°C 5.0°C
06/01/23 05:50 EGXC 060550Z 24012KT 9999 SKC 07/05 Q1010 RMK BLU 13.8mph 7°C 5°C 6.3°C
06/01/23 04:50 EGXC 060450Z 25012KT 9999 SKC 07/05 Q1010 RMK BLU 13.8mph 7°C 5°C 6.3°C
06/01/23 03:50 EGXC 060350Z 25014KT 9999 SKC 07/05 Q1010 RMK BLU 16.1mph 7°C 5°C 6.3°C
06/01/23 02:50 EGXC 060250Z AUTO 24012KT 9999 // FEW130/// 07/06 Q1009 13.8mph 7°C 6°C 6.6°C
06/01/23 01:50 EGXC 060150Z 28006KT 9999 -RA SCT038 BKN090 08/07 Q1008 RMK BLU -RA 6.9mph 8°C 7°C 8.0°C
06/01/23 00:50 EGXC 060050Z 24019G33KT 9999 RA FEW013 BKN018 BKN036 09/07 Q1008 RMK WHT RA 21.9mph 38.0mph 9°C 7°C 9.0°C
06/01/23 00:40 EGXC 060040Z 21013KT 2500 +RA BKN013 BKN024 11/09 Q1007 RMK YLO1 +RA 15.0mph 11°C 9°C 11.8°C
05/01/23 23:50 EGXC 052350Z 19014KT 9999 BKN021 BKN050 11/09 Q1007 RMK WHT 16.1mph 11°C 9°C 11.8°C
05/01/23 22:50 EGXC 052250Z 21016KT 9999 FEW025 SCT060 BKN160 11/09 Q1008 RMK BLU 18.4mph 11°C 9°C 11.8°C
05/01/23 21:50 EGXC 052150Z 21017KT 9999 FEW018 BKN027 11/09 Q1009 RMK BLU 19.6mph 11°C 9°C 11.8°C
05/01/23 20:50 EGXC 052050Z 20013KT 9999 BKN017 11/09 Q1010 RMK WHT 15.0mph 11°C 9°C 11.8°C
05/01/23 19:50 EGXC 051950Z 20016KT 9999 BKN017 11/09 Q1011 RMK WHT 18.4mph 11°C 9°C 11.8°C
05/01/23 18:50 EGXC 051850Z 20014KT 9999 SCT018 BKN050 11/09 Q1011 RMK WHT 16.1mph 11°C 9°C 11.8°C
05/01/23 17:20 EGXC 051720Z AUTO 21014KT 9999 OVC044/// 11/08 Q1012 16.1mph 11°C 8°C 11.4°C
05/01/23 16:50 EGXC 051650Z 21012KT 9999 FEW018 BKN050 11/09 Q1012 TEMPO SCT018 RMK BLU TEMPO WHT 13.8mph 11°C 9°C 11.8°C
05/01/23 15:50 EGXC 051550Z 20010KT 9999 FEW018 BKN040 BKN250 12/10 Q1013 TEMPO SCT018 RMK BLU TEMPO WHT 11.5mph 12°C 10°C 13.3°C
05/01/23 15:20 EGXC 051520Z 20009KT 9999 FEW015 BKN032 BKN050 12/10 Q1013 TEMPO SCT018 RMK BLU TEMPO WHT 10.4mph 12°C 10°C 13.3°C